sensor_id;sensor_type;location;lat;lon;timestamp;P1;durP1;ratioP1;P2;durP2;ratioP2
8102;SDS011;4094;49.948;11.574;2024-01-15T00:02:56;42.23;;;31.43;;
8102;SDS011;4094;49.948;11.574;2024-01-15T00:07:34;44.43;;;32.33;;
8102;SDS011;4094;49.948;11.574;2024-01-15T00:11:28;43.20;;;32.57;;
8102;SDS011;4094;49.948;11.574;2024-01-15T00:15:01;44.50;;;32.83;;
8102;SDS011;4094;49.948;11.574;2024-01-15T00:24:09;39.87;;;30.13;;
8102;SDS011;4094;49.948;11.574;2024-01-15T01:00:29;47.17;;;32.87;;
8102;SDS011;4094;49.948;11.574;2024-01-15T01:19:03;47.90;;;32.83;;
8102;SDS011;4094;49.948;11.574;2024-01-15T01:31:26;44.93;;;31.97;;
8102;SDS011;4094;49.948;11.574;2024-01-15T01:35:38;53.33;;;32.63;;
8102;SDS011;4094;49.948;11.574;2024-01-15T01:51:20;45.53;;;30.97;;
8102;SDS011;4094;49.948;11.574;2024-01-15T02:42:00;38.83;;;27.93;;
8102;SDS011;4094;49.948;11.574;2024-01-15T02:50:22;34.80;;;25.93;;
8102;SDS011;4094;49.948;11.574;2024-01-15T02:59:36;37.27;;;27.60;;
8102;SDS011;4094;49.948;11.574;2024-01-15T03:03:14;35.27;;;26.90;;
8102;SDS011;4094;49.948;11.574;2024-01-15T03:08:16;33.33;;;25.83;;
8102;SDS011;4094;49.948;11.574;2024-01-15T03:11:37;35.27;;;26.43;;
8102;SDS011;4094;49.948;11.574;2024-01-15T03:15:28;34.13;;;25.70;;
8102;SDS011;4094;49.948;11.574;2024-01-15T03:23:51;37.20;;;26.60;;
8102;SDS011;4094;49.948;11.574;2024-01-15T03:54:13;37.30;;;26.77;;
8102;SDS011;4094;49.948;11.574;2024-01-15T03:57:44;34.63;;;26.60;;
8102;SDS011;4094;49.948;11.574;2024-01-15T04:10:25;38.37;;;26.00;;
8102;SDS011;4094;49.948;11.574;2024-01-15T04:21:02;34.90;;;25.17;;
8102;SDS011;4094;49.948;11.574;2024-01-15T04:24:51;34.90;;;25.27;;
8102;SDS011;4094;49.948;11.574;2024-01-15T04:28:07;33.30;;;25.90;;
8102;SDS011;4094;49.948;11.574;2024-01-15T04:32:42;34.93;;;25.30;;
8102;SDS011;4094;49.948;11.574;2024-01-15T04:36:41;30.40;;;24.83;;
8102;SDS011;4094;49.948;11.574;2024-01-15T04:43:59;33.00;;;25.13;;
8102;SDS011;4094;49.948;11.574;2024-01-15T04:47:17;30.97;;;24.80;;
8102;SDS011;4094;49.948;11.574;2024-01-15T04:51:41;31.00;;;24.83;;
8102;SDS011;4094;49.948;11.574;2024-01-15T04:58:58;32.13;;;25.10;;
8102;SDS011;4094;49.948;11.574;2024-01-15T05:03:23;30.20;;;24.73;;
8102;SDS011;4094;49.948;11.574;2024-01-15T05:06:52;28.37;;;23.57;;
8102;SDS011;4094;49.948;11.574;2024-01-15T05:10:11;26.90;;;23.40;;
8102;SDS011;4094;49.948;11.574;2024-01-15T05:18:09;31.33;;;24.53;;
8102;SDS011;4094;49.948;11.574;2024-01-15T05:23:02;30.63;;;24.20;;
8102;SDS011;4094;49.948;11.574;2024-01-15T05:27:39;29.77;;;24.10;;
8102;SDS011;4094;49.948;11.574;2024-01-15T05:30:47;28.03;;;23.00;;
8102;SDS011;4094;49.948;11.574;2024-01-15T05:34:45;28.57;;;22.87;;
8102;SDS011;4094;49.948;11.574;2024-01-15T05:37:42;26.90;;;23.93;;
8102;SDS011;4094;49.948;11.574;2024-01-15T05:40:37;25.13;;;22.10;;
8102;SDS011;4094;49.948;11.574;2024-01-15T05:43:42;27.37;;;23.33;;
8102;SDS011;4094;49.948;11.574;2024-01-15T05:46:57;27.13;;;23.43;;
8102;SDS011;4094;49.948;11.574;2024-01-15T05:50:10;28.43;;;22.93;;
8102;SDS011;4094;49.948;11.574;2024-01-15T05:54:34;25.27;;;22.27;;
8102;SDS011;4094;49.948;11.574;2024-01-15T05:57:27;24.70;;;22.13;;
8102;SDS011;4094;49.948;11.574;2024-01-15T06:00:35;25.63;;;22.83;;
8102;SDS011;4094;49.948;11.574;2024-01-15T06:03:38;25.13;;;21.77;;
8102;SDS011;4094;49.948;11.574;2024-01-15T06:06:43;24.60;;;21.13;;
8102;SDS011;4094;49.948;11.574;2024-01-15T06:09:39;23.97;;;21.43;;
8102;SDS011;4094;49.948;11.574;2024-01-15T06:12:44;24.03;;;21.50;;
8102;SDS011;4094;49.948;11.574;2024-01-15T06:15:53;24.23;;;21.73;;
8102;SDS011;4094;49.948;11.574;2024-01-15T06:18:45;24.80;;;20.90;;
8102;SDS011;4094;49.948;11.574;2024-01-15T06:23:20;23.60;;;20.87;;
8102;SDS011;4094;49.948;11.574;2024-01-15T06:27:10;23.73;;;21.07;;
8102;SDS011;4094;49.948;11.574;2024-01-15T06:35:32;23.93;;;21.33;;
8102;SDS011;4094;49.948;11.574;2024-01-15T06:40:27;25.50;;;21.37;;
8102;SDS011;4094;49.948;11.574;2024-01-15T06:51:35;22.83;;;20.43;;
8102;SDS011;4094;49.948;11.574;2024-01-15T07:04:10;22.73;;;19.50;;
8102;SDS011;4094;49.948;11.574;2024-01-15T07:14:24;23.00;;;20.60;;
8102;SDS011;4094;49.948;11.574;2024-01-15T07:32:00;22.60;;;20.20;;
8102;SDS011;4094;49.948;11.574;2024-01-15T07:42:52;24.13;;;21.23;;
8102;SDS011;4094;49.948;11.574;2024-01-15T07:46:04;21.93;;;19.73;;
8102;SDS011;4094;49.948;11.574;2024-01-15T07:49:52;23.83;;;21.43;;
8102;SDS011;4094;49.948;11.574;2024-01-15T07:58:49;24.30;;;21.67;;
8102;SDS011;4094;49.948;11.574;2024-01-15T08:03:31;22.37;;;20.10;;
8102;SDS011;4094;49.948;11.574;2024-01-15T08:19:42;23.53;;;21.23;;
8102;SDS011;4094;49.948;11.574;2024-01-15T08:23:08;22.90;;;20.50;;
8102;SDS011;4094;49.948;11.574;2024-01-15T08:26:49;22.17;;;19.50;;
8102;SDS011;4094;49.948;11.574;2024-01-15T08:30:13;23.03;;;20.00;;
8102;SDS011;4094;49.948;11.574;2024-01-15T08:41:20;25.13;;;21.00;;
8102;SDS011;4094;49.948;11.574;2024-01-15T08:49:03;22.37;;;19.80;;
8102;SDS011;4094;49.948;11.574;2024-01-15T08:52:15;22.83;;;20.43;;
8102;SDS011;4094;49.948;11.574;2024-01-15T08:55:43;23.97;;;21.47;;
8102;SDS011;4094;49.948;11.574;2024-01-15T09:00:19;24.73;;;22.07;;
8102;SDS011;4094;49.948;11.574;2024-01-15T09:03:55;24.73;;;22.23;;
8102;SDS011;4094;49.948;11.574;2024-01-15T09:06:51;24.27;;;21.63;;
8102;SDS011;4094;49.948;11.574;2024-01-15T09:10:56;24.00;;;21.57;;
8102;SDS011;4094;49.948;11.574;2024-01-15T09:13:48;26.67;;;21.37;;
8102;SDS011;4094;49.948;11.574;2024-01-15T09:17:53;23.30;;;21.00;;
8102;SDS011;4094;49.948;11.574;2024-01-15T09:21:53;24.57;;;22.03;;
8102;SDS011;4094;49.948;11.574;2024-01-15T09:25:26;24.63;;;21.50;;
8102;SDS011;4094;49.948;11.574;2024-01-15T09:28:23;22.20;;;20.00;;
8102;SDS011;4094;49.948;11.574;2024-01-15T09:31:15;22.30;;;20.10;;
8102;SDS011;4094;49.948;11.574;2024-01-15T09:37:47;22.13;;;19.90;;
8102;SDS011;4094;49.948;11.574;2024-01-15T09:46:05;22.33;;;20.13;;
8102;SDS011;4094;49.948;11.574;2024-01-15T09:50:01;22.07;;;19.30;;
8102;SDS011;4094;49.948;11.574;2024-01-15T09:53:05;22.30;;;20.07;;
8102;SDS011;4094;49.948;11.574;2024-01-15T09:58:25;20.37;;;18.37;;
8102;SDS011;4094;49.948;11.574;2024-01-15T10:01:43;22.20;;;19.90;;
8102;SDS011;4094;49.948;11.574;2024-01-15T10:04:38;21.63;;;19.53;;
8102;SDS011;4094;49.948;11.574;2024-01-15T10:07:38;21.47;;;19.33;;
8102;SDS011;4094;49.948;11.574;2024-01-15T10:10:55;21.47;;;19.47;;
8102;SDS011;4094;49.948;11.574;2024-01-15T10:14:28;21.87;;;19.77;;
8102;SDS011;4094;49.948;11.574;2024-01-15T10:17:29;21.90;;;19.60;;
8102;SDS011;4094;49.948;11.574;2024-01-15T10:20:18;21.10;;;18.90;;
8102;SDS011;4094;49.948;11.574;2024-01-15T10:23:16;22.77;;;20.37;;
8102;SDS011;4094;49.948;11.574;2024-01-15T10:26:16;21.87;;;19.67;;
8102;SDS011;4094;49.948;11.574;2024-01-15T10:30:04;22.20;;;19.93;;
8102;SDS011;4094;49.948;11.574;2024-01-15T10:33:10;22.03;;;19.70;;
8102;SDS011;4094;49.948;11.574;2024-01-15T10:37:45;20.33;;;18.53;;
8102;SDS011;4094;49.948;11.574;2024-01-15T10:43:59;21.00;;;18.80;;
8102;SDS011;4094;49.948;11.574;2024-01-15T10:48:22;22.67;;;20.47;;
8102;SDS011;4094;49.948;11.574;2024-01-15T10:51:32;22.33;;;20.07;;
8102;SDS011;4094;49.948;11.574;2024-01-15T10:54:40;20.87;;;18.77;;
8102;SDS011;4094;49.948;11.574;2024-01-15T10:58:02;21.10;;;19.00;;
8102;SDS011;4094;49.948;11.574;2024-01-15T11:00:55;20.77;;;18.90;;
8102;SDS011;4094;49.948;11.574;2024-01-15T11:04:18;21.60;;;19.47;;
8102;SDS011;4094;49.948;11.574;2024-01-15T11:07:10;20.70;;;18.60;;
8102;SDS011;4094;49.948;11.574;2024-01-15T11:13:50;21.17;;;19.03;;
8102;SDS011;4094;49.948;11.574;2024-01-15T11:16:57;20.87;;;18.80;;
8102;SDS011;4094;49.948;11.574;2024-01-15T11:19:50;20.23;;;18.33;;
8102;SDS011;4094;49.948;11.574;2024-01-15T11:22:50;21.27;;;19.17;;
8102;SDS011;4094;49.948;11.574;2024-01-15T11:25:58;21.97;;;19.77;;
8102;SDS011;4094;49.948;11.574;2024-01-15T11:28:49;23.50;;;21.10;;
8102;SDS011;4094;49.948;11.574;2024-01-15T11:32:00;21.87;;;19.77;;
8102;SDS011;4094;49.948;11.574;2024-01-15T11:34:58;21.53;;;19.43;;
8102;SDS011;4094;49.948;11.574;2024-01-15T11:38:12;21.63;;;19.53;;
8102;SDS011;4094;49.948;11.574;2024-01-15T11:41:28;21.37;;;19.40;;
8102;SDS011;4094;49.948;11.574;2024-01-15T11:44:59;23.07;;;20.87;;
8102;SDS011;4094;49.948;11.574;2024-01-15T11:49:04;22.37;;;20.30;;
8102;SDS011;4094;49.948;11.574;2024-01-15T11:52:01;22.10;;;20.00;;
8102;SDS011;4094;49.948;11.574;2024-01-15T11:55:12;22.43;;;20.23;;
8102;SDS011;4094;49.948;11.574;2024-01-15T11:58:37;22.13;;;19.93;;
8102;SDS011;4094;49.948;11.574;2024-01-15T12:01:53;22.13;;;20.10;;
8102;SDS011;4094;49.948;11.574;2024-01-15T12:05:20;21.63;;;19.60;;
8102;SDS011;4094;49.948;11.574;2024-01-15T12:08:40;22.50;;;20.37;;
8102;SDS011;4094;49.948;11.574;2024-01-15T12:12:08;22.33;;;20.03;;
8102;SDS011;4094;49.948;11.574;2024-01-15T12:15:54;21.60;;;19.50;;
8102;SDS011;4094;49.948;11.574;2024-01-15T12:19:03;22.00;;;19.90;;
8102;SDS011;4094;49.948;11.574;2024-01-15T12:26:43;22.43;;;20.23;;
8102;SDS011;4094;49.948;11.574;2024-01-15T12:29:47;23.33;;;21.10;;
8102;SDS011;4094;49.948;11.574;2024-01-15T12:33:04;21.97;;;19.87;;
8102;SDS011;4094;49.948;11.574;2024-01-15T12:36:27;22.00;;;20.00;;
8102;SDS011;4094;49.948;11.574;2024-01-15T12:39:26;22.17;;;19.87;;
8102;SDS011;4094;49.948;11.574;2024-01-15T12:42:25;22.17;;;20.13;;
8102;SDS011;4094;49.948;11.574;2024-01-15T12:45:28;22.03;;;19.97;;
8102;SDS011;4094;49.948;11.574;2024-01-15T12:48:39;21.80;;;19.77;;
8102;SDS011;4094;49.948;11.574;2024-01-15T13:07:59;20.87;;;18.87;;
8102;SDS011;4094;49.948;11.574;2024-01-15T13:11:16;21.60;;;19.60;;
8102;SDS011;4094;49.948;11.574;2024-01-15T13:14:25;21.20;;;19.37;;
8102;SDS011;4094;49.948;11.574;2024-01-15T13:22:31;21.07;;;18.97;;
8102;SDS011;4094;49.948;11.574;2024-01-15T13:27:17;19.97;;;18.17;;
8102;SDS011;4094;49.948;11.574;2024-01-15T13:38:34;20.03;;;18.23;;
8102;SDS011;4094;49.948;11.574;2024-01-15T13:41:46;20.07;;;18.27;;
8102;SDS011;4094;49.948;11.574;2024-01-15T13:45:14;19.77;;;18.03;;
8102;SDS011;4094;49.948;11.574;2024-01-15T13:48:20;20.47;;;18.40;;
8102;SDS011;4094;49.948;11.574;2024-01-15T14:00:39;19.73;;;17.83;;
8102;SDS011;4094;49.948;11.574;2024-01-15T14:04:55;19.03;;;17.47;;
8102;SDS011;4094;49.948;11.574;2024-01-15T14:08:47;18.03;;;16.53;;
8102;SDS011;4094;49.948;11.574;2024-01-15T14:13:32;20.27;;;18.40;;
8102;SDS011;4094;49.948;11.574;2024-01-15T14:16:23;19.90;;;18.10;;
8102;SDS011;4094;49.948;11.574;2024-01-15T14:44:55;17.40;;;16.00;;
8102;SDS011;4094;49.948;11.574;2024-01-15T14:47:57;17.13;;;15.73;;
8102;SDS011;4094;49.948;11.574;2024-01-15T14:51:17;17.47;;;15.97;;
8102;SDS011;4094;49.948;11.574;2024-01-15T14:54:19;17.10;;;15.67;;
8102;SDS011;4094;49.948;11.574;2024-01-15T14:58:21;17.50;;;16.03;;
8102;SDS011;4094;49.948;11.574;2024-01-15T15:01:39;17.57;;;15.97;;
8102;SDS011;4094;49.948;11.574;2024-01-15T15:11:37;17.57;;;16.10;;
8102;SDS011;4094;49.948;11.574;2024-01-15T15:18:20;17.50;;;16.10;;
8102;SDS011;4094;49.948;11.574;2024-01-15T15:34:01;16.93;;;15.60;;
8102;SDS011;4094;49.948;11.574;2024-01-15T15:38:25;16.60;;;15.30;;
8102;SDS011;4094;49.948;11.574;2024-01-15T15:42:26;16.83;;;15.53;;
8102;SDS011;4094;49.948;11.574;2024-01-15T15:46:51;16.53;;;15.33;;
8102;SDS011;4094;49.948;11.574;2024-01-15T15:52:10;15.67;;;14.47;;
8102;SDS011;4094;49.948;11.574;2024-01-15T16:00:11;15.10;;;14.10;;
8102;SDS011;4094;49.948;11.574;2024-01-15T16:03:14;15.97;;;14.70;;
8102;SDS011;4094;49.948;11.574;2024-01-15T16:07:03;15.47;;;14.37;;
8102;SDS011;4094;49.948;11.574;2024-01-15T16:10:09;15.53;;;14.43;;
8102;SDS011;4094;49.948;11.574;2024-01-15T16:13:28;15.93;;;14.73;;
8102;SDS011;4094;49.948;11.574;2024-01-15T16:18:49;15.17;;;14.03;;
8102;SDS011;4094;49.948;11.574;2024-01-15T16:26:57;15.10;;;14.00;;
8102;SDS011;4094;49.948;11.574;2024-01-15T16:33:12;15.57;;;14.50;;
8102;SDS011;4094;49.948;11.574;2024-01-15T16:39:53;15.70;;;14.60;;
8102;SDS011;4094;49.948;11.574;2024-01-15T16:56:43;15.50;;;14.40;;
8102;SDS011;4094;49.948;11.574;2024-01-15T16:59:58;15.10;;;13.90;;
8102;SDS011;4094;49.948;11.574;2024-01-15T17:03:03;15.23;;;14.13;;
8102;SDS011;4094;49.948;11.574;2024-01-15T17:07:48;15.13;;;14.03;;
8102;SDS011;4094;49.948;11.574;2024-01-15T17:11:28;15.17;;;14.17;;
8102;SDS011;4094;49.948;11.574;2024-01-15T17:14:36;16.07;;;14.87;;
8102;SDS011;4094;49.948;11.574;2024-01-15T17:19:11;15.43;;;14.33;;
8102;SDS011;4094;49.948;11.574;2024-01-15T17:22:24;15.07;;;13.97;;
8102;SDS011;4094;49.948;11.574;2024-01-15T17:26:03;15.73;;;14.57;;
8102;SDS011;4094;49.948;11.574;2024-01-15T17:30:16;15.40;;;14.27;;
8102;SDS011;4094;49.948;11.574;2024-01-15T17:33:16;15.50;;;14.20;;
8102;SDS011;4094;49.948;11.574;2024-01-15T17:36:29;15.03;;;13.83;;
8102;SDS011;4094;49.948;11.574;2024-01-15T17:40:04;15.37;;;14.23;;
8102;SDS011;4094;49.948;11.574;2024-01-15T17:43:34;15.70;;;14.50;;
8102;SDS011;4094;49.948;11.574;2024-01-15T17:47:02;16.53;;;15.30;;
8102;SDS011;4094;49.948;11.574;2024-01-15T17:57:19;16.07;;;14.77;;
8102;SDS011;4094;49.948;11.574;2024-01-15T18:00:09;15.57;;;14.37;;
8102;SDS011;4094;49.948;11.574;2024-01-15T18:03:28;15.97;;;14.77;;
8102;SDS011;4094;49.948;11.574;2024-01-15T18:06:20;15.73;;;14.53;;
8102;SDS011;4094;49.948;11.574;2024-01-15T18:12:20;16.13;;;14.93;;
8102;SDS011;4094;49.948;11.574;2024-01-15T18:15:20;16.07;;;14.80;;
8102;SDS011;4094;49.948;11.574;2024-01-15T18:18:09;15.70;;;14.30;;
8102;SDS011;4094;49.948;11.574;2024-01-15T18:21:00;16.37;;;15.03;;
8102;SDS011;4094;49.948;11.574;2024-01-15T18:23:51;15.87;;;14.67;;
8102;SDS011;4094;49.948;11.574;2024-01-15T18:27:02;16.07;;;14.60;;
8102;SDS011;4094;49.948;11.574;2024-01-15T18:30:26;14.43;;;13.43;;
8102;SDS011;4094;49.948;11.574;2024-01-15T18:33:20;15.57;;;14.13;;
8102;SDS011;4094;49.948;11.574;2024-01-15T18:36:17;15.37;;;14.23;;
8102;SDS011;4094;49.948;11.574;2024-01-15T18:39:28;15.90;;;14.70;;
8102;SDS011;4094;49.948;11.574;2024-01-15T18:42:41;14.77;;;13.67;;
8102;SDS011;4094;49.948;11.574;2024-01-15T18:46:10;15.20;;;14.10;;
8102;SDS011;4094;49.948;11.574;2024-01-15T18:48:58;15.07;;;13.90;;
8102;SDS011;4094;49.948;11.574;2024-01-15T18:55:37;14.97;;;13.93;;
8102;SDS011;4094;49.948;11.574;2024-01-15T18:59:16;14.53;;;13.53;;
8102;SDS011;4094;49.948;11.574;2024-01-15T19:02:19;15.40;;;14.20;;
8102;SDS011;4094;49.948;11.574;2024-01-15T19:05:55;15.23;;;14.13;;
8102;SDS011;4094;49.948;11.574;2024-01-15T19:08:54;15.83;;;14.67;;
8102;SDS011;4094;49.948;11.574;2024-01-15T19:11:43;14.67;;;13.57;;
8102;SDS011;4094;49.948;11.574;2024-01-15T19:14:35;15.90;;;14.73;;
8102;SDS011;4094;49.948;11.574;2024-01-15T19:20:58;15.20;;;14.10;;
8102;SDS011;4094;49.948;11.574;2024-01-15T19:25:05;14.83;;;13.73;;
8102;SDS011;4094;49.948;11.574;2024-01-15T19:28:14;15.03;;;13.83;;
8102;SDS011;4094;49.948;11.574;2024-01-15T19:31:10;15.07;;;13.97;;
8102;SDS011;4094;49.948;11.574;2024-01-15T19:34:56;15.47;;;14.27;;
8102;SDS011;4094;49.948;11.574;2024-01-15T19:37:50;15.57;;;14.30;;
8102;SDS011;4094;49.948;11.574;2024-01-15T19:42:04;15.30;;;14.10;;
8102;SDS011;4094;49.948;11.574;2024-01-15T19:44:56;15.33;;;14.10;;
8102;SDS011;4094;49.948;11.574;2024-01-15T19:48:00;14.93;;;13.93;;
8102;SDS011;4094;49.948;11.574;2024-01-15T19:54:15;15.20;;;14.10;;
8102;SDS011;4094;49.948;11.574;2024-01-15T19:57:08;15.87;;;14.67;;
8102;SDS011;4094;49.948;11.574;2024-01-15T19:59:58;14.80;;;13.70;;
8102;SDS011;4094;49.948;11.574;2024-01-15T20:06:11;14.47;;;13.37;;
8102;SDS011;4094;49.948;11.574;2024-01-15T20:09:07;14.73;;;13.63;;
8102;SDS011;4094;49.948;11.574;2024-01-15T20:12:11;15.07;;;13.93;;
8102;SDS011;4094;49.948;11.574;2024-01-15T20:15:02;15.63;;;14.40;;
8102;SDS011;4094;49.948;11.574;2024-01-15T20:18:21;14.53;;;13.43;;
8102;SDS011;4094;49.948;11.574;2024-01-15T20:22:03;14.37;;;13.33;;
8102;SDS011;4094;49.948;11.574;2024-01-15T20:25:30;14.97;;;13.77;;
8102;SDS011;4094;49.948;11.574;2024-01-15T20:28:42;15.20;;;13.90;;
8102;SDS011;4094;49.948;11.574;2024-01-15T20:31:38;14.90;;;13.70;;
8102;SDS011;4094;49.948;11.574;2024-01-15T20:34:51;15.70;;;14.50;;
8102;SDS011;4094;49.948;11.574;2024-01-15T20:42:00;15.10;;;14.00;;
8102;SDS011;4094;49.948;11.574;2024-01-15T20:45:50;14.23;;;13.23;;
8102;SDS011;4094;49.948;11.574;2024-01-15T20:48:58;14.90;;;13.83;;
8102;SDS011;4094;49.948;11.574;2024-01-15T20:55:16;15.30;;;14.10;;
8102;SDS011;4094;49.948;11.574;2024-01-15T20:58:24;13.73;;;12.73;;
8102;SDS011;4094;49.948;11.574;2024-01-15T21:01:18;14.90;;;13.80;;
8102;SDS011;4094;49.948;11.574;2024-01-15T21:08:47;13.80;;;12.87;;
8102;SDS011;4094;49.948;11.574;2024-01-15T21:12:47;14.30;;;13.10;;
8102;SDS011;4094;49.948;11.574;2024-01-15T21:15:46;13.90;;;12.80;;
8102;SDS011;4094;49.948;11.574;2024-01-15T21:19:43;14.23;;;13.23;;
8102;SDS011;4094;49.948;11.574;2024-01-15T21:23:39;14.20;;;13.13;;
8102;SDS011;4094;49.948;11.574;2024-01-15T21:40:21;13.70;;;12.60;;
8102;SDS011;4094;49.948;11.574;2024-01-15T21:45:26;13.20;;;12.23;;
8102;SDS011;4094;49.948;11.574;2024-01-15T21:49:28;13.80;;;12.87;;
8102;SDS011;4094;49.948;11.574;2024-01-15T21:52:36;13.30;;;12.30;;
8102;SDS011;4094;49.948;11.574;2024-01-15T21:56:30;13.57;;;12.63;;
8102;SDS011;4094;49.948;11.574;2024-01-15T22:00:16;13.30;;;12.40;;
8102;SDS011;4094;49.948;11.574;2024-01-15T22:12:25;13.00;;;12.10;;
8102;SDS011;4094;49.948;11.574;2024-01-15T22:15:43;12.83;;;11.97;;
8102;SDS011;4094;49.948;11.574;2024-01-15T22:19:59;13.37;;;12.47;;
8102;SDS011;4094;49.948;11.574;2024-01-15T22:49:43;12.40;;;11.50;;
8102;SDS011;4094;49.948;11.574;2024-01-15T22:53:06;13.43;;;12.33;;
8102;SDS011;4094;49.948;11.574;2024-01-15T22:57:22;12.27;;;11.50;;
8102;SDS011;4094;49.948;11.574;2024-01-15T23:01:23;13.37;;;12.37;;
8102;SDS011;4094;49.948;11.574;2024-01-15T23:10:28;13.17;;;12.17;;
8102;SDS011;4094;49.948;11.574;2024-01-15T23:18:55;14.30;;;13.10;;
8102;SDS011;4094;49.948;11.574;2024-01-15T23:22:54;13.40;;;12.50;;
8102;SDS011;4094;49.948;11.574;2024-01-15T23:27:04;13.87;;;12.73;;
8102;SDS011;4094;49.948;11.574;2024-01-15T23:30:20;13.67;;;12.67;;
8102;SDS011;4094;49.948;11.574;2024-01-15T23:34:00;13.67;;;12.60;;
8102;SDS011;4094;49.948;11.574;2024-01-15T23:43:37;13.83;;;12.83;;
8102;SDS011;4094;49.948;11.574;2024-01-15T23:48:11;13.23;;;12.30;;
8102;SDS011;4094;49.948;11.574;2024-01-15T23:53:58;14.33;;;13.03;;
8102;SDS011;4094;49.948;11.574;2024-01-15T23:58:09;13.57;;;12.60;;
